Time;durP1;ratioP1;P1;durP2;ratioP2;P2;SDS_P1;SDS_P2;PMS_P1;PMS_P2;Temp;Humidity;BMP_temperature;BMP_pressure;BME280_temperature;BME280_humidity;BME280_pressure;Samples;Min_cycle;Max_cycle;Signal;HPM_P1;HPM_P2
2023/03/12 00:02:22;;;;;;;4.60;1.90;;;1.70;99.90;;;;;;5066453;28;20639;-64
2023/03/12 00:04:49;;;;;;;4.30;2.20;;;1.10;99.90;;;;;;5049290;28;20208;-64
2023/03/12 00:07:17;;;;;;;2.57;2.07;;;1.10;99.90;;;;;;5075725;27;20230;-64
2023/03/12 00:09:44;;;;;;;4.80;1.90;;;1.00;99.90;;;;;;5077558;27;20207;-64
2023/03/12 00:12:11;;;;;;;3.17;2.17;;;1.00;99.90;;;;;;5068075;27;20355;-64
2023/03/12 00:14:38;;;;;;;4.40;2.30;;;1.00;99.90;;;;;;5062313;28;20206;-64
2023/03/12 00:17:04;;;;;;;4.27;2.40;;;1.10;99.90;;;;;;5078157;28;20424;-64
2023/03/12 00:19:31;;;;;;;6.73;2.00;;;1.00;99.90;;;;;;5057242;27;20222;-64
2023/03/12 00:21:58;;;;;;;2.23;1.87;;;1.00;99.90;;;;;;5041021;28;20209;-64
2023/03/12 00:24:26;;;;;;;2.47;1.97;;;1.00;99.90;;;;;;5080935;27;20201;-64
2023/03/12 00:26:53;;;;;;;2.83;2.03;;;1.00;99.90;;;;;;5070209;28;20878;-64
2023/03/12 00:29:20;;;;;;;6.60;2.33;;;1.00;99.90;;;;;;5068411;28;20204;-64
2023/03/12 00:31:46;;;;;;;3.83;2.00;;;0.90;99.90;;;;;;5084425;27;20659;-64
2023/03/12 00:34:13;;;;;;;2.73;1.63;;;0.90;99.90;;;;;;5073770;28;20319;-64
2023/03/12 00:36:40;;;;;;;3.43;1.90;;;0.90;99.90;;;;;;5050717;27;20231;-64
2023/03/12 00:39:07;;;;;;;5.97;2.00;;;0.90;99.90;;;;;;5078181;27;20193;-64
2023/03/12 00:41:35;;;;;;;6.47;2.13;;;0.90;99.90;;;;;;5079692;28;20884;-64
2023/03/12 00:44:02;;;;;;;4.60;2.13;;;1.00;99.90;;;;;;5066490;27;20513;-64
2023/03/12 00:46:29;;;;;;;3.50;2.00;;;1.00;99.90;;;;;;5079359;28;20209;-64
2023/03/12 00:48:56;;;;;;;5.93;1.90;;;1.00;99.90;;;;;;5077158;27;20370;-64
2023/03/12 00:51:23;;;;;;;7.50;2.47;;;1.00;99.90;;;;;;5041977;28;20218;-64
2023/03/12 00:53:49;;;;;;;2.90;2.07;;;1.00;99.90;;;;;;5079162;28;20194;-64
2023/03/12 00:56:16;;;;;;;4.57;2.53;;;1.00;99.90;;;;;;5077043;27;20867;-64
2023/03/12 00:58:45;;;;;;;3.77;2.23;;;1.00;99.90;;;;;;5071647;28;20205;-64
2023/03/12 01:01:11;;;;;;;6.73;2.10;;;1.00;99.90;;;;;;5054312;27;21154;-64
2023/03/12 01:03:38;;;;;;;4.63;2.10;;;1.00;99.90;;;;;;5073683;27;20197;-64
2023/03/12 01:06:05;;;;;;;3.93;2.07;;;1.00;99.90;;;;;;5064621;28;20616;-64
2023/03/12 01:08:33;;;;;;;7.93;2.40;;;1.00;99.90;;;;;;5052195;28;20230;-64
2023/03/12 01:11:00;;;;;;;3.40;1.93;;;0.90;99.90;;;;;;5076182;27;20601;-64
2023/03/12 01:13:27;;;;;;;2.33;1.97;;;0.90;99.90;;;;;;5082962;27;20640;-64
2023/03/12 01:15:55;;;;;;;4.40;2.20;;;0.90;99.90;;;;;;5069997;27;20232;-64
2023/03/12 01:18:22;;;;;;;5.27;2.23;;;0.90;99.90;;;;;;5083318;27;20666;-64
2023/03/12 01:20:49;;;;;;;4.03;2.00;;;0.90;99.90;;;;;;5079260;27;20203;-64
2023/03/12 01:23:15;;;;;;;3.53;1.90;;;0.80;99.90;;;;;;5048331;28;21286;-64
2023/03/12 01:25:42;;;;;;;6.07;1.90;;;0.80;99.90;;;;;;5079727;28;20282;-64
2023/03/12 01:28:09;;;;;;;3.13;1.73;;;0.70;99.90;;;;;;5073981;28;20587;-64
2023/03/12 01:30:36;;;;;;;5.60;2.33;;;1.30;99.90;;;;;;5072470;27;20209;-64
2023/03/12 01:33:04;;;;;;;7.30;1.90;;;0.70;99.90;;;;;;5079998;27;20421;-63
2023/03/12 01:35:35;;;;;;;2.70;2.10;;;0.70;99.90;;;;;;5085974;27;20201;-64
2023/03/12 01:38:01;;;;;;;4.53;2.00;;;0.70;99.90;;;;;;5065013;28;20639;-64
2023/03/12 01:40:28;;;;;;;5.23;2.00;;;0.60;99.90;;;;;;5051599;27;20797;-64
2023/03/12 01:42:56;;;;;;;4.47;2.10;;;0.60;99.90;;;;;;5080414;27;20217;-64
2023/03/12 01:46:00;;;;;;;2.00;1.70;;;0.60;99.90;;;;;;5072553;28;20209;-64
2023/03/12 01:48:32;;;;;;;3.20;1.80;;;0.60;99.90;;;;;;5084220;28;20199;-64
2023/03/12 01:50:59;;;;;;;3.13;1.90;;;0.50;99.90;;;;;;5078922;28;20202;-64
2023/03/12 01:53:26;;;;;;;4.93;1.80;;;0.50;99.90;;;;;;5075805;28;20201;-64
2023/03/12 01:55:53;;;;;;;3.90;1.93;;;0.40;99.90;;;;;;5048260;28;20212;-64
2023/03/12 01:58:21;;;;;;;4.80;2.23;;;0.50;99.90;;;;;;5079209;28;20203;-64
2023/03/12 02:00:47;;;;;;;5.30;1.90;;;0.40;99.90;;;;;;5065744;28;20704;-64
2023/03/12 02:03:15;;;;;;;2.83;1.73;;;0.40;99.90;;;;;;5068820;28;20320;-64
2023/03/12 02:05:48;;;;;;;2.90;2.00;;;0.40;99.90;;;;;;5080809;28;20337;-64
2023/03/12 02:08:17;;;;;;;4.27;1.77;;;0.40;99.90;;;;;;5060319;28;20219;-64
2023/03/12 02:10:44;;;;;;;3.33;1.80;;;0.40;99.90;;;;;;5045397;28;20208;-64
2023/03/12 02:13:11;;;;;;;4.07;1.80;;;0.30;99.90;;;;;;5077303;28;20331;-64
2023/03/12 02:15:39;;;;;;;5.53;2.03;;;0.40;99.90;;;;;;5082166;27;20218;-64
2023/03/12 02:18:09;;;;;;;6.80;1.90;;;0.40;99.90;;;;;;5064473;27;20684;-64
2023/03/12 02:20:43;;;;;;;2.20;1.90;;;0.40;99.90;;;;;;5080408;27;20204;-64
2023/03/12 02:23:16;;;;;;;4.23;1.90;;;0.30;99.90;;;;;;5062818;27;20198;-64
2023/03/12 02:25:47;;;;;;;2.83;1.93;;;0.30;99.90;;;;;;5048673;27;20780;-64
2023/03/12 02:28:17;;;;;;;3.03;1.70;;;0.30;99.90;;;;;;5067410;27;20197;-64
2023/03/12 02:30:47;;;;;;;3.53;1.77;;;0.40;99.90;;;;;;5085074;28;21037;-64
2023/03/12 02:33:15;;;;;;;3.63;1.60;;;0.30;99.90;;;;;;5068736;28;20199;-64
2023/03/12 02:35:42;;;;;;;2.27;1.90;;;0.30;99.90;;;;;;5072119;28;20689;-64
2023/03/12 02:38:35;;;;;;;3.67;1.73;;;0.20;99.90;;;;;;5068906;27;22074;-63
2023/03/12 02:41:09;;;;;;;4.47;2.00;;;0.20;99.90;;;;;;5072845;27;20207;-64
2023/03/12 02:43:37;;;;;;;1.60;1.40;;;0.10;99.90;;;;;;5070085;28;20201;-64
2023/03/12 02:46:04;;;;;;;2.27;1.60;;;0.10;99.90;;;;;;5078955;28;20555;-64
2023/03/12 02:48:31;;;;;;;2.20;1.70;;;0.10;99.90;;;;;;5065271;27;20193;-64
2023/03/12 02:50:58;;;;;;;3.90;2.13;;;0.10;99.90;;;;;;5071607;27;20575;-64
2023/03/12 02:53:25;;;;;;;4.23;1.83;;;0.10;99.90;;;;;;5068691;27;20908;-63
2023/03/12 02:55:51;;;;;;;3.40;1.90;;;0.10;99.90;;;;;;5071827;28;21465;-63
2023/03/12 02:58:19;;;;;;;5.97;1.80;;;0.10;99.90;;;;;;5048315;27;20228;-64
2023/03/12 03:00:46;;;;;;;3.77;1.77;;;0.10;99.90;;;;;;5081902;27;20782;-63
2023/03/12 03:03:13;;;;;;;4.60;1.77;;;0.10;99.90;;;;;;5067775;28;20217;-64
2023/03/12 03:05:40;;;;;;;5.00;1.87;;;0.10;99.90;;;;;;5071984;28;20490;-64
2023/03/12 03:08:07;;;;;;;3.83;1.93;;;0.00;99.90;;;;;;5076617;28;20712;-63
2023/03/12 03:10:34;;;;;;;2.77;2.00;;;0.00;99.90;;;;;;5067650;28;21429;-63
2023/03/12 03:13:01;;;;;;;2.50;2.10;;;-0.10;99.90;;;;;;5046506;28;20929;-63
2023/03/12 03:15:29;;;;;;;8.87;2.17;;;-0.10;99.90;;;;;;5071026;28;20538;-63
2023/03/12 03:17:57;;;;;;;3.80;1.90;;;-0.20;99.90;;;;;;5065448;27;20225;-63
2023/03/12 03:20:25;;;;;;;2.70;1.70;;;-0.30;99.90;;;;;;5079768;27;20296;-63
2023/03/12 03:22:52;;;;;;;4.70;2.10;;;-0.20;99.90;;;;;;5079959;27;20222;-64
2023/03/12 03:25:21;;;;;;;4.67;1.77;;;-0.30;99.90;;;;;;5071951;28;20567;-64
2023/03/12 03:27:47;;;;;;;4.87;2.33;;;-0.40;99.90;;;;;;5050337;27;20453;-63
2023/03/12 03:30:15;;;;;;;2.37;1.90;;;-0.40;99.90;;;;;;5083441;27;20196;-63
2023/03/12 03:32:43;;;;;;;3.00;2.17;;;-0.30;99.90;;;;;;5062747;27;20286;-63
2023/03/12 03:35:10;;;;;;;2.30;1.97;;;-0.30;99.90;;;;;;5085945;27;20354;-63
2023/03/12 03:37:37;;;;;;;2.13;1.93;;;-0.40;99.90;;;;;;5082990;27;20428;-63
2023/03/12 03:40:05;;;;;;;2.67;2.20;;;-0.30;99.90;;;;;;5082816;27;20223;-63
2023/03/12 03:42:32;;;;;;;2.63;2.33;;;-0.30;99.90;;;;;;5078727;28;20586;-63
2023/03/12 03:44:59;;;;;;;3.07;1.97;;;-0.30;99.90;;;;;;5040994;27;20197;-63
2023/03/12 03:47:26;;;;;;;2.07;1.87;;;-0.30;99.90;;;;;;5079464;28;20318;-63
2023/03/12 03:49:54;;;;;;;2.30;2.10;;;-0.30;99.90;;;;;;5071323;27;20682;-63
2023/03/12 03:52:21;;;;;;;3.63;2.23;;;-0.30;99.90;;;;;;5079309;28;20977;-63
2023/03/12 03:54:47;;;;;;;2.60;2.10;;;-0.40;99.90;;;;;;5082112;28;20496;-63
2023/03/12 03:57:14;;;;;;;5.43;2.40;;;-0.30;99.90;;;;;;5078716;27;20320;-63
2023/03/12 03:59:41;;;;;;;3.83;2.23;;;-0.30;99.90;;;;;;5054767;28;20294;-63
2023/03/12 04:02:08;;;;;;;4.57;2.00;;;-0.30;99.90;;;;;;5078020;28;20221;-63
2023/03/12 04:04:35;;;;;;;5.67;2.40;;;-0.30;99.90;;;;;;5059977;28;20218;-63
2023/03/12 04:07:03;;;;;;;3.13;2.00;;;-0.30;99.90;;;;;;5083084;28;20230;-63
2023/03/12 04:09:30;;;;;;;2.53;2.23;;;-0.30;99.90;;;;;;5069855;27;20543;-63
2023/03/12 04:11:57;;;;;;;6.40;2.40;;;-0.30;99.90;;;;;;5080352;28;20199;-63
2023/03/12 04:14:24;;;;;;;2.17;1.93;;;-0.20;99.90;;;;;;5046498;27;21804;-63
2023/03/12 04:16:50;;;;;;;4.37;2.07;;;-0.20;99.90;;;;;;5070401;28;20423;-63
2023/03/12 04:19:17;;;;;;;3.80;2.00;;;-0.10;99.90;;;;;;5080713;27;20768;-63
2023/03/12 04:21:44;;;;;;;7.50;2.17;;;-0.10;99.90;;;;;;5069693;28;20337;-63
2023/03/12 04:24:15;;;;;;;2.77;2.00;;;-0.10;99.90;;;;;;5067495;28;20282;-63
2023/03/12 04:26:43;;;;;;;3.03;2.30;;;-0.10;99.90;;;;;;5075752;27;20230;-63
2023/03/12 04:29:10;;;;;;;3.00;2.20;;;-0.10;99.90;;;;;;5074562;27;20309;-63
2023/03/12 04:31:37;;;;;;;9.53;2.37;;;-0.20;99.90;;;;;;5049601;27;20482;-64
2023/03/12 04:34:04;;;;;;;3.03;2.30;;;-0.20;99.90;;;;;;5067725;28;20304;-63
2023/03/12 04:36:31;;;;;;;4.93;2.20;;;-0.20;99.90;;;;;;5065693;27;20227;-63
2023/03/12 04:38:57;;;;;;;4.00;2.63;;;-0.20;99.90;;;;;;5059437;28;20304;-63
2023/03/12 04:41:26;;;;;;;5.20;2.10;;;-0.20;99.90;;;;;;5077207;28;20885;-63
2023/03/12 04:43:53;;;;;;;5.70;2.37;;;-0.20;99.90;;;;;;5081337;27;21017;-63
2023/03/12 04:46:19;;;;;;;14.23;2.47;;;-0.20;99.90;;;;;;5035966;28;20228;-63
2023/03/12 04:48:46;;;;;;;3.63;2.30;;;-0.20;99.90;;;;;;5075373;28;20221;-63
2023/03/12 04:51:13;;;;;;;3.17;2.23;;;-0.20;99.90;;;;;;5067205;27;20639;-63
2023/03/12 04:53:40;;;;;;;9.10;2.50;;;-0.20;99.90;;;;;;5074306;28;20680;-63
2023/03/12 04:56:07;;;;;;;3.20;1.87;;;-0.20;99.90;;;;;;5079736;28;20211;-63
2023/03/12 04:58:36;;;;;;;3.60;2.30;;;-0.20;99.90;;;;;;5075573;27;20695;-63
2023/03/12 05:01:04;;;;;;;5.17;2.33;;;-0.20;99.90;;;;;;5056463;28;20302;-63
2023/03/12 05:03:31;;;;;;;5.00;2.70;;;-0.30;99.90;;;;;;5057425;28;20394;-63
2023/03/12 05:05:58;;;;;;;3.37;2.20;;;-0.30;99.90;;;;;;5075075;27;20974;-63
2023/03/12 05:08:25;;;;;;;6.47;2.27;;;-0.30;99.90;;;;;;5059924;27;20545;-63
2023/03/12 05:10:52;;;;;;;4.20;2.20;;;-0.20;99.90;;;;;;5075038;28;20821;-63
2023/03/12 05:13:20;;;;;;;4.33;2.57;;;-0.20;99.90;;;;;;5071269;27;20292;-63
2023/03/12 05:15:49;;;;;;;6.97;2.77;;;-0.20;99.90;;;;;;5077805;27;20352;-63
2023/03/12 05:18:16;;;;;;;3.00;2.30;;;-0.20;99.90;;;;;;5041631;28;20227;-63
2023/03/12 05:20:43;;;;;;;3.33;2.60;;;-0.20;99.90;;;;;;5077423;27;20230;-63
2023/03/12 05:23:10;;;;;;;3.37;2.53;;;-0.20;99.90;;;;;;5062650;28;20329;-63
2023/03/12 05:25:39;;;;;;;3.23;2.50;;;-0.20;99.90;;;;;;5086102;27;20494;-63
2023/03/12 05:28:06;;;;;;;5.27;2.70;;;-0.20;99.90;;;;;;5075790;28;20198;-63
2023/03/12 05:30:32;;;;;;;3.77;2.23;;;-0.20;99.90;;;;;;5072042;27;20492;-63
2023/03/12 05:33:01;;;;;;;4.33;2.60;;;-0.20;99.90;;;;;;5052353;27;20760;-64
2023/03/12 05:35:28;;;;;;;5.43;2.70;;;-0.20;99.90;;;;;;5078898;28;20269;-63
2023/03/12 05:37:54;;;;;;;8.90;2.77;;;-0.20;99.90;;;;;;5076019;27;20444;-63
2023/03/12 05:40:21;;;;;;;2.80;2.50;;;-0.20;99.90;;;;;;5063609;28;20192;-63
2023/03/12 05:42:48;;;;;;;3.77;2.20;;;-0.10;99.90;;;;;;5078196;28;20228;-63
2023/03/12 05:45:15;;;;;;;4.57;2.30;;;0.00;99.90;;;;;;5075948;28;20276;-63
2023/03/12 05:47:42;;;;;;;5.10;2.70;;;0.00;99.90;;;;;;5082412;28;20722;-63
2023/03/12 05:50:11;;;;;;;3.70;2.30;;;0.00;99.90;;;;;;5047363;28;20255;-63
2023/03/12 05:52:38;;;;;;;8.27;2.47;;;1.00;99.90;;;;;;5076963;27;20431;-63
2023/03/12 05:55:07;;;;;;;5.23;2.47;;;0.00;99.90;;;;;;5064736;28;20291;-63
2023/03/12 05:57:34;;;;;;;3.90;2.50;;;0.00;99.90;;;;;;5075640;28;20518;-63
2023/03/12 06:00:00;;;;;;;4.57;2.27;;;0.00;99.90;;;;;;5078410;28;20584;-63
2023/03/12 06:02:27;;;;;;;4.93;2.63;;;0.00;99.90;;;;;;5071184;28;20943;-63
2023/03/12 06:04:56;;;;;;;5.03;3.13;;;0.00;99.90;;;;;;5046437;28;20344;-63
2023/03/12 06:07:25;;;;;;;5.00;2.43;;;0.00;99.90;;;;;;5073770;28;20234;-63
2023/03/12 06:09:51;;;;;;;4.57;3.00;;;0.00;99.90;;;;;;5063376;28;20215;-63
2023/03/12 06:12:18;;;;;;;9.77;2.80;;;0.00;99.90;;;;;;5068378;28;20251;-63
2023/03/12 06:14:46;;;;;;;4.53;2.57;;;0.00;99.90;;;;;;5065090;28;20840;-63
2023/03/12 06:17:13;;;;;;;3.70;2.50;;;0.00;99.90;;;;;;5070594;28;20282;-63
2023/03/12 06:19:40;;;;;;;2.33;2.13;;;0.10;99.90;;;;;;5042704;28;20287;-63
2023/03/12 06:22:06;;;;;;;5.50;3.10;;;0.10;99.90;;;;;;5070021;28;20373;-63
2023/03/12 06:24:35;;;;;;;4.23;2.67;;;0.20;99.90;;;;;;5061320;28;20498;-63
2023/03/12 06:27:01;;;;;;;3.10;2.60;;;0.20;99.90;;;;;;5072433;28;20195;-63
2023/03/12 06:29:28;;;;;;;7.27;2.90;;;0.20;99.90;;;;;;5075708;28;20292;-63
2023/03/12 06:31:55;;;;;;;5.97;2.33;;;0.20;99.90;;;;;;5081485;28;20215;-63
2023/03/12 06:34:22;;;;;;;6.77;2.97;;;0.20;99.90;;;;;;5048531;28;20786;-63
2023/03/12 06:36:49;;;;;;;6.73;2.70;;;0.30;99.90;;;;;;5075735;28;20246;-63
2023/03/12 06:39:17;;;;;;;8.13;2.83;;;0.30;99.90;;;;;;5060459;28;20414;-63
2023/03/12 06:41:45;;;;;;;5.60;2.63;;;0.40;99.90;;;;;;5062806;28;20488;-63
2023/03/12 06:44:12;;;;;;;7.40;3.17;;;0.40;99.90;;;;;;5067690;28;20419;-63
2023/03/12 06:46:40;;;;;;;6.13;2.20;;;0.40;99.90;;;;;;5072970;28;20899;-63
2023/03/12 06:49:06;;;;;;;3.87;2.80;;;0.40;99.90;;;;;;5077074;28;20561;-63
2023/03/12 06:51:33;;;;;;;3.00;2.60;;;0.40;99.90;;;;;;5048876;28;20445;-63
2023/03/12 06:54:01;;;;;;;5.90;3.03;;;0.40;99.90;;;;;;5076062;28;20725;-63
2023/03/12 06:56:28;;;;;;;6.97;2.73;;;0.50;99.90;;;;;;5063896;28;20200;-63
2023/03/12 06:58:56;;;;;;;3.53;2.87;;;0.50;99.90;;;;;;5063951;28;20357;-63
2023/03/12 07:01:23;;;;;;;5.40;2.47;;;0.50;99.90;;;;;;5040239;28;20196;-63
2023/03/12 07:03:50;;;;;;;5.57;2.90;;;0.50;99.90;;;;;;5078373;27;21379;-63
2023/03/12 07:06:19;;;;;;;4.83;2.40;;;0.60;99.90;;;;;;5034510;27;20220;-63
2023/03/12 07:08:46;;;;;;;5.77;2.80;;;0.60;99.90;;;;;;5071135;28;20627;-63
2023/03/12 07:11:13;;;;;;;7.03;3.40;;;0.60;99.90;;;;;;5072065;28;20334;-63
2023/03/12 07:13:41;;;;;;;5.27;3.33;;;0.70;99.90;;;;;;5069957;28;20202;-63
2023/03/12 07:16:09;;;;;;;5.07;3.23;;;0.70;99.90;;;;;;5066171;28;20287;-63
2023/03/12 07:18:36;;;;;;;6.17;3.83;;;0.80;99.90;;;;;;5060634;27;20413;-63
2023/03/12 07:21:04;;;;;;;17.13;3.97;;;0.80;99.90;;;;;;5051174;27;20332;-63
2023/03/12 07:23:31;;;;;;;9.87;4.27;;;0.90;99.90;;;;;;5058023;27;20257;-63
2023/03/12 07:25:58;;;;;;;5.27;3.70;;;0.90;99.90;;;;;;5076076;27;20641;-63
2023/03/12 07:28:24;;;;;;;10.07;4.20;;;1.00;99.90;;;;;;5055068;27;20748;-63
2023/03/12 07:30:51;;;;;;;8.23;3.77;;;1.00;99.90;;;;;;5068914;27;21317;-63
2023/03/12 07:33:21;;;;;;;10.27;4.67;;;1.00;99.90;;;;;;5072808;27;20333;-63
2023/03/12 07:35:48;;;;;;;11.57;4.63;;;1.00;99.90;;;;;;5072776;27;20755;-63
2023/03/12 07:38:15;;;;;;;6.47;3.90;;;1.00;99.90;;;;;;5039043;28;20650;-63
2023/03/12 07:40:42;;;;;;;7.43;4.40;;;1.00;99.90;;;;;;5071008;28;20228;-63
2023/03/12 07:43:11;;;;;;;6.40;4.43;;;1.10;99.90;;;;;;5060410;27;20866;-63
2023/03/12 07:45:39;;;;;;;6.67;3.97;;;1.00;99.90;;;;;;5066012;27;20226;-63
2023/03/12 07:48:06;;;;;;;7.47;4.00;;;1.10;99.90;;;;;;5077906;28;22293;-63
2023/03/12 07:50:36;;;;;;;7.40;3.93;;;1.10;99.90;;;;;;5072413;28;20295;-63
2023/03/12 07:53:03;;;;;;;9.63;4.13;;;1.20;99.90;;;;;;5044676;27;20307;-63
2023/03/12 07:55:30;;;;;;;7.20;4.30;;;1.20;99.90;;;;;;5069567;27;20893;-63
2023/03/12 07:57:57;;;;;;;10.37;4.67;;;1.20;99.90;;;;;;5055896;27;20207;-63
2023/03/12 08:00:25;;;;;;;9.53;4.03;;;1.20;99.90;;;;;;5059626;27;20212;-63
2023/03/12 08:02:52;;;;;;;6.47;4.30;;;1.20;99.90;;;;;;5055214;27;20335;-63
2023/03/12 08:05:19;;;;;;;6.87;3.77;;;1.30;99.90;;;;;;5071276;27;20627;-63
2023/03/12 08:07:47;;;;;;;13.13;8.03;;;1.20;99.90;;;;;;5019733;28;22849;-64
2023/03/12 08:10:14;;;;;;;43.83;16.90;;;1.30;99.90;;;;;;5087013;22;20282;-63
2023/03/12 08:12:41;;;;;;;27.03;11.80;;;1.30;99.90;;;;;;5035163;27;20403;-63
2023/03/12 08:15:08;;;;;;;18.77;8.97;;;1.40;99.90;;;;;;5075760;28;20293;-64
2023/03/12 08:17:35;;;;;;;11.53;6.90;;;1.40;99.90;;;;;;5054539;27;20505;-63
2023/03/12 08:20:03;;;;;;;12.17;5.70;;;1.40;99.90;;;;;;5075044;27;20353;-63
2023/03/12 08:22:30;;;;;;;11.67;5.30;;;1.50;99.90;;;;;;5063934;28;20655;-63
2023/03/12 08:24:58;;;;;;;9.53;5.03;;;1.50;99.90;;;;;;5031170;27;20316;-63
2023/03/12 08:27:25;;;;;;;9.83;4.20;;;1.60;99.90;;;;;;5069469;27;20376;-64
2023/03/12 08:29:52;;;;;;;8.27;4.53;;;1.70;99.90;;;;;;5055909;28;20320;-64
2023/03/12 08:32:19;;;;;;;7.93;4.20;;;1.80;99.90;;;;;;5082174;28;20223;-64
2023/03/12 08:34:46;;;;;;;10.07;4.60;;;1.80;99.90;;;;;;5087861;28;21175;-64
2023/03/12 08:37:13;;;;;;;4.80;3.87;;;1.80;99.90;;;;;;5082300;28;20383;-63
2023/03/12 08:39:40;;;;;;;6.47;4.10;;;1.90;99.90;;;;;;5044705;28;20408;-64
2023/03/12 08:42:09;;;;;;;10.20;4.23;;;1.80;99.90;;;;;;5081621;28;20315;-64
2023/03/12 08:44:35;;;;;;;7.13;4.13;;;1.90;99.90;;;;;;5085460;28;20303;-64
2023/03/12 08:47:02;;;;;;;11.10;4.60;;;1.90;99.90;;;;;;5085534;28;20301;-63
2023/03/12 08:49:29;;;;;;;6.77;4.90;;;2.00;99.90;;;;;;5081965;27;20345;-64
2023/03/12 08:51:56;;;;;;;4.97;3.67;;;2.00;99.90;;;;;;5083795;27;20284;-64
2023/03/12 08:54:23;;;;;;;7.57;4.37;;;2.10;99.90;;;;;;5070684;28;20396;-64
2023/03/12 08:56:51;;;;;;;6.70;4.60;;;2.10;99.90;;;;;;5053848;27;20309;-64
2023/03/12 08:59:21;;;;;;;12.07;4.10;;;2.20;99.90;;;;;;5084057;28;21171;-64
2023/03/12 09:01:48;;;;;;;8.17;5.23;;;2.20;99.90;;;;;;5059656;28;20439;-64
2023/03/12 09:04:15;;;;;;;12.03;4.53;;;2.30;99.90;;;;;;5064977;27;20343;-64
2023/03/12 09:06:42;;;;;;;6.33;4.13;;;2.30;99.90;;;;;;5060391;28;21207;-64
2023/03/12 09:09:09;;;;;;;10.07;4.60;;;2.40;99.90;;;;;;5068629;28;20387;-64
2023/03/12 09:11:39;;;;;;;9.67;5.23;;;2.40;99.90;;;;;;5046181;27;20634;-64
2023/03/12 09:14:06;;;;;;;9.63;5.20;;;2.50;99.90;;;;;;5080871;28;20203;-64
2023/03/12 09:16:35;;;;;;;11.43;4.57;;;2.50;99.90;;;;;;5076061;27;20316;-64
2023/03/12 09:19:02;;;;;;;7.43;4.70;;;2.60;99.90;;;;;;5075874;28;20254;-64
2023/03/12 09:21:29;;;;;;;10.10;4.50;;;2.60;99.90;;;;;;5079061;28;20880;-64
2023/03/12 09:23:56;;;;;;;7.60;3.70;;;2.60;99.90;;;;;;5065288;28;20271;-64
2023/03/12 09:26:23;;;;;;;5.10;3.63;;;2.60;99.90;;;;;;5040347;28;20249;-64
2023/03/12 09:28:50;;;;;;;4.90;3.50;;;2.70;99.90;;;;;;5079951;28;20306;-64
2023/03/12 09:31:20;;;;;;;6.40;4.00;;;2.70;99.90;;;;;;5074388;28;20644;-64
2023/03/12 09:33:48;;;;;;;9.50;3.80;;;3.20;99.90;;;;;;5080225;28;20463;-64
2023/03/12 09:36:15;;;;;;;11.43;3.97;;;2.70;99.90;;;;;;5078995;28;20305;-64
2023/03/12 09:38:42;;;;;;;5.00;3.57;;;2.70;99.90;;;;;;5062814;28;20313;-64
2023/03/12 09:41:18;;;;;;;5.47;3.57;;;2.70;99.90;;;;;;5070671;28;20294;-64
2023/03/12 09:43:51;;;;;;;6.70;4.30;;;2.80;99.90;;;;;;5053362;27;20329;-64
2023/03/12 09:46:23;;;;;;;9.27;4.50;;;2.80;99.90;;;;;;5072796;28;20734;-64
2023/03/12 09:48:53;;;;;;;7.07;4.13;;;2.80;99.90;;;;;;5076440;28;20352;-64
2023/03/12 09:51:24;;;;;;;7.80;4.30;;;2.80;99.90;;;;;;5078461;28;20360;-64
2023/03/12 09:53:53;;;;;;;5.97;3.80;;;2.80;99.90;;;;;;5064821;28;20571;-64
2023/03/12 09:56:22;;;;;;;5.93;3.60;;;2.90;99.90;;;;;;5049783;28;20731;-64
2023/03/12 09:58:53;;;;;;;6.07;3.30;;;2.90;99.90;;;;;;5063711;28;20556;-64
2023/03/12 10:01:30;;;;;;;4.50;3.70;;;3.00;99.90;;;;;;5047694;28;20206;-64
2023/03/12 10:04:26;;;;;;;9.53;4.13;;;3.10;99.90;;;;;;5080401;28;20256;-64
2023/03/12 10:07:00;;;;;;;5.37;3.93;;;3.20;99.90;;;;;;5069160;28;20815;-64
2023/03/12 10:09:43;;;;;;;11.47;5.30;;;3.40;99.90;;;;;;5059468;28;20316;-64
2023/03/12 10:12:19;;;;;;;4.37;3.50;;;3.30;99.90;;;;;;5039297;28;21130;-64
2023/03/12 10:14:56;;;;;;;7.83;4.10;;;3.20;99.90;;;;;;5074984;28;20301;-64
2023/03/12 10:17:38;;;;;;;6.20;4.03;;;3.30;99.90;;;;;;5078652;28;20202;-64
2023/03/12 10:20:33;;;;;;;4.57;3.47;;;3.30;99.90;;;;;;5064267;28;20246;-64
2023/03/12 10:23:07;;;;;;;10.53;3.90;;;3.40;99.90;;;;;;5074239;28;20649;-64
2023/03/12 10:25:41;;;;;;;4.53;3.43;;;3.50;99.90;;;;;;5055307;28;20740;-64
2023/03/12 10:28:16;;;;;;;6.83;3.20;;;3.60;99.90;;;;;;5046237;28;20379;-64
2023/03/12 10:30:50;;;;;;;4.80;3.73;;;3.60;99.90;;;;;;5071538;28;20748;-64
2023/03/12 10:33:19;;;;;;;5.70;3.67;;;3.60;99.90;;;;;;5029988;28;21370;-64
2023/03/12 10:35:49;;;;;;;7.50;3.80;;;3.60;99.90;;;;;;5024673;28;20871;-64
2023/03/12 10:38:20;;;;;;;7.30;4.03;;;3.60;99.90;;;;;;5051013;28;20339;-66
2023/03/12 10:40:47;;;;;;;10.20;4.77;;;3.50;99.90;;;;;;5015262;27;21039;-65
2023/03/12 10:43:14;;;;;;;8.57;4.23;;;3.50;99.90;;;;;;4986089;27;20918;-65
2023/03/12 10:45:48;;;;;;;8.60;3.20;;;3.50;99.90;;;;;;5052107;27;20243;-65
2023/03/12 10:48:20;;;;;;;8.13;3.00;;;3.50;99.90;;;;;;5066392;28;20292;-65
2023/03/12 10:51:02;;;;;;;6.93;3.47;;;3.40;99.90;;;;;;5063560;28;20226;-66
2023/03/12 10:53:32;;;;;;;6.77;4.00;;;3.40;99.90;;;;;;5043503;28;20219;-65
2023/03/12 10:56:04;;;;;;;4.20;2.80;;;3.40;99.90;;;;;;5038953;28;20206;-65
2023/03/12 10:58:34;;;;;;;6.10;3.10;;;3.50;99.90;;;;;;5005339;28;20224;-66
2023/03/12 11:01:03;;;;;;;7.00;3.07;;;3.40;99.90;;;;;;5064669;27;21207;-66
2023/03/12 11:03:30;;;;;;;6.87;3.20;;;3.50;99.90;;;;;;5046315;27;20306;-65
2023/03/12 11:06:00;;;;;;;5.27;2.80;;;3.50;99.90;;;;;;5056981;27;20839;-66
2023/03/12 11:08:29;;;;;;;4.20;2.70;;;3.50;99.90;;;;;;5057925;28;20354;-65
2023/03/12 11:10:58;;;;;;;3.87;2.97;;;3.50;99.90;;;;;;5031330;27;20262;-65
2023/03/12 11:13:28;;;;;;;7.97;2.73;;;3.50;99.90;;;;;;5040131;28;20260;-65
2023/03/12 11:15:56;;;;;;;5.23;2.63;;;3.40;99.90;;;;;;5028395;28;20227;-64
2023/03/12 11:18:28;;;;;;;4.83;2.60;;;3.40;99.90;;;;;;5060589;28;20339;-65
2023/03/12 11:21:11;;;;;;;3.67;2.53;;;3.30;99.90;;;;;;5058782;27;20239;-64
2023/03/12 11:23:41;;;;;;;6.63;2.47;;;3.30;99.90;;;;;;5070329;28;20303;-64
2023/03/12 11:26:15;;;;;;;5.60;2.40;;;3.30;99.90;;;;;;5044469;28;20865;-65
2023/03/12 11:28:45;;;;;;;4.33;2.10;;;3.30;99.90;;;;;;5043680;28;20307;-65
2023/03/12 11:31:22;;;;;;;6.13;2.63;;;3.30;99.90;;;;;;5047930;27;20772;-65
2023/03/12 11:33:49;;;;;;;8.27;2.60;;;3.20;99.90;;;;;;5067058;28;20279;-65
2023/03/12 11:36:31;;;;;;;3.63;2.30;;;3.30;99.90;;;;;;5072909;28;20344;-64
2023/03/12 11:39:03;;;;;;;4.40;2.30;;;3.30;99.90;;;;;;5075429;27;20202;-65
2023/03/12 11:41:43;;;;;;;5.20;2.67;;;3.30;99.90;;;;;;5038137;28;20480;-66
2023/03/12 11:44:21;;;;;;;4.00;2.37;;;3.30;99.90;;;;;;5003353;27;20546;-66
2023/03/12 11:46:57;;;;;;;4.00;2.80;;;3.30;99.90;;;;;;5039184;27;20389;-65
2023/03/12 11:49:39;;;;;;;4.30;2.20;;;3.20;99.90;;;;;;5055833;28;20315;-66
2023/03/12 11:52:16;;;;;;;5.13;2.60;;;3.20;99.90;;;;;;5071957;27;20321;-65
2023/03/12 11:54:55;;;;;;;4.17;3.00;;;3.10;99.90;;;;;;5074638;22;20638;-66
2023/03/12 11:57:32;;;;;;;5.37;3.30;;;3.10;99.90;;;;;;5018714;28;20539;-66
2023/03/12 12:00:11;;;;;;;5.93;2.70;;;3.00;99.90;;;;;;5016359;28;20219;-65
2023/03/12 12:03:05;;;;;;;5.37;2.60;;;2.90;99.90;;;;;;5057555;28;20204;-65
2023/03/12 12:05:45;;;;;;;13.63;3.10;;;2.90;99.90;;;;;;5058838;27;20234;-66
2023/03/12 12:08:33;;;;;;;6.10;2.83;;;2.90;99.90;;;;;;5065492;27;20463;-65
2023/03/12 12:11:08;;;;;;;4.63;3.70;;;2.90;99.90;;;;;;5068064;27;20333;-66
2023/03/12 12:13:48;;;;;;;3.10;2.60;;;2.80;99.90;;;;;;5042295;27;20308;-66
2023/03/12 12:16:28;;;;;;;5.07;2.90;;;2.90;99.90;;;;;;5015583;27;20642;-65
2023/03/12 12:19:07;;;;;;;9.10;3.23;;;2.90;99.90;;;;;;5055279;27;20219;-66
2023/03/12 12:22:03;;;;;;;5.50;3.33;;;2.90;99.90;;;;;;5056554;27;20863;-66
2023/03/12 12:24:42;;;;;;;4.33;3.53;;;2.80;99.90;;;;;;5072300;27;20215;-66
2023/03/12 12:27:17;;;;;;;15.13;4.70;;;2.80;99.90;;;;;;5059756;28;20291;-66
2023/03/12 12:30:04;;;;;;;7.70;3.13;;;2.80;99.90;;;;;;5050669;27;20425;-66
2023/03/12 12:32:42;;;;;;;4.87;3.63;;;2.80;99.90;;;;;;5025693;28;20318;-65
2023/03/12 12:35:25;;;;;;;7.70;3.63;;;2.80;99.90;;;;;;5057397;27;20289;-66
2023/03/12 12:37:56;;;;;;;6.57;3.60;;;2.90;99.90;;;;;;5067998;27;20211;-66
2023/03/12 12:40:29;;;;;;;5.30;3.30;;;2.80;99.90;;;;;;5056999;27;20411;-66
2023/03/12 12:43:04;;;;;;;3.87;3.47;;;2.80;99.90;;;;;;5040818;27;20431;-66
2023/03/12 12:45:31;;;;;;;4.53;3.57;;;2.80;99.90;;;;;;5053019;28;20297;-67
2023/03/12 12:48:02;;;;;;;9.67;4.40;;;2.80;99.90;;;;;;5046494;27;20204;-66
2023/03/12 12:50:33;;;;;;;12.37;4.50;;;2.80;99.90;;;;;;5064570;28;20199;-66
2023/03/12 12:53:08;;;;;;;7.17;5.10;;;2.80;99.90;;;;;;5052873;27;20287;-66
2023/03/12 12:55:42;;;;;;;6.47;4.60;;;2.80;99.90;;;;;;5048272;27;21021;-66
2023/03/12 12:58:15;;;;;;;7.37;4.23;;;2.80;99.90;;;;;;5039795;28;20502;-66
2023/03/12 13:00:49;;;;;;;5.70;3.80;;;2.80;99.90;;;;;;5047523;27;20268;-66
2023/03/12 13:03:19;;;;;;;4.67;3.77;;;2.90;99.90;;;;;;5039162;27;21929;-65
2023/03/12 13:05:57;;;;;;;7.70;3.60;;;2.80;99.90;;;;;;5060124;28;20209;-66